Terminal Aerodrome Forecast
Issued by NWS North Platte, NE

Home | Current Version | Previous Version | Text Only | Print | Product List | Glossary On
Versions: 1 2 3 4 5 6 7 8 9 10 11 12 13 14 15 16 17 18
973
FTUS43 KLBF 020520
TAFLBF
TAF
KLBF 020520Z 0206/0306 VRB06KT P6SM SKC
     FM021700 30008KT P6SM SCT250
     FM022000 30008KT P6SM BKN080 PROB30 0223/0305 -TSRA BKN050CB=

USA.gov is the U.S. government's official web portal to all federal, state and local government web resources and services.